Time;durP1;ratioP1;P1;durP2;ratioP2;P2;SDS_P1;SDS_P2;PMS_P1;PMS_P2;Temp;Humidity;BMP_temperature;BMP_pressure;BME280_temperature;BME280_humidity;BME280_pressure;Samples;Min_cycle;Max_cycle;Signal;HPM_P1;HPM_P2
2021/10/18 00:00:52;;;;;;;4.87;3.90;;;;;;;16.61;43.23;100049.11;1813826;78;21022;-61
2021/10/18 00:03:19;;;;;;;5.67;3.62;;;;;;;16.61;43.22;100047.77;1789339;77;21084;-59
2021/10/18 00:05:45;;;;;;;4.35;3.70;;;;;;;16.60;43.25;100039.91;1805739;77;21053;-60
2021/10/18 00:08:12;;;;;;;6.33;4.12;;;;;;;16.59;43.25;100034.22;1808403;77;21102;-61
2021/10/18 00:10:40;;;;;;;3.75;3.22;;;;;;;16.58;43.30;100037.42;1809960;77;21017;-60
2021/10/18 00:13:07;;;;;;;3.70;3.12;;;;;;;16.58;43.27;100029.91;1814134;77;21093;-59
2021/10/18 00:15:35;;;;;;;3.98;2.95;;;;;;;16.56;43.27;100023.39;1797811;77;21057;-61
2021/10/18 00:18:03;;;;;;;5.17;3.45;;;;;;;16.55;43.32;100027.08;1823261;77;20979;-60
2021/10/18 00:20:31;;;;;;;3.72;3.20;;;;;;;16.54;43.27;100032.16;1787497;77;21038;-60
2021/10/18 00:22:59;;;;;;;4.10;3.60;;;;;;;16.55;43.26;100026.27;1788883;77;21514;-60
2021/10/18 00:25:26;;;;;;;4.37;3.72;;;;;;;16.53;43.29;100019.75;1793474;77;21037;-59
2021/10/18 00:27:53;;;;;;;4.55;3.33;;;;;;;16.53;43.27;100024.30;1794200;77;21034;-60
2021/10/18 00:30:20;;;;;;;3.95;3.40;;;;;;;16.53;43.27;100026.98;1790273;77;21083;-60
2021/10/18 00:32:46;;;;;;;3.95;3.00;;;;;;;16.51;43.23;100030.70;1804118;77;21144;-60
2021/10/18 00:35:14;;;;;;;4.05;3.52;;;;;;;16.50;43.23;100023.67;1770821;79;21043;-59
2021/10/18 00:37:40;;;;;;;4.45;3.42;;;;;;;16.50;43.23;100028.22;1786650;77;21089;-60
2021/10/18 00:40:08;;;;;;;4.35;3.47;;;;;;;16.50;43.24;100028.22;1812202;77;21012;-60
2021/10/18 00:42:35;;;;;;;4.20;3.42;;;;;;;16.49;43.24;100026.55;1797413;77;21075;-61
2021/10/18 00:45:01;;;;;;;4.80;3.35;;;;;;;16.48;43.23;100023.57;1831521;77;21052;-60
2021/10/18 00:47:27;;;;;;;4.20;3.55;;;;;;;16.48;43.23;100022.23;1809560;77;21108;-60
2021/10/18 00:49:54;;;;;;;4.10;3.60;;;;;;;16.47;43.23;100020.56;1801187;77;21032;-60
2021/10/18 00:52:20;;;;;;;4.00;3.60;;;;;;;16.47;43.21;100021.38;1808913;77;21081;-60
2021/10/18 00:54:47;;;;;;;4.97;3.67;;;;;;;16.47;43.22;100023.24;1809845;77;21049;-59
2021/10/18 00:57:15;;;;;;;3.72;3.40;;;;;;;16.46;43.20;100021.09;1813181;77;21097;-59
2021/10/18 00:59:42;;;;;;;3.98;3.35;;;;;;;16.45;43.23;100023.44;1815347;77;21467;-60
2021/10/18 01:02:09;;;;;;;3.75;3.35;;;;;;;16.45;43.18;100023.95;1820121;78;21096;-59
2021/10/18 01:04:35;;;;;;;3.52;3.22;;;;;;;16.44;43.18;100016.44;1787374;78;21068;-61
2021/10/18 01:07:02;;;;;;;4.20;3.25;;;;;;;16.43;43.18;100015.28;1811261;77;21596;-60
2021/10/18 01:09:28;;;;;;;3.47;3.17;;;;;;;16.43;43.17;100013.95;1803236;78;21172;-60
2021/10/18 01:11:55;;;;;;;3.95;3.35;;;;;;;16.42;43.20;100017.67;1801090;77;21034;-60
2021/10/18 01:14:21;;;;;;;4.72;3.55;;;;;;;16.41;43.23;100014.66;1796511;77;20997;-59
2021/10/18 01:16:48;;;;;;;3.83;3.27;;;;;;;16.40;43.22;100010.31;1777677;79;21001;-60
2021/10/18 01:19:18;;;;;;;3.42;3.10;;;;;;;16.40;43.25;100004.95;1805495;77;21048;-59
2021/10/18 01:21:44;;;;;;;4.08;3.67;;;;;;;16.38;43.24;100008.34;1806481;78;21788;-59
2021/10/18 01:24:11;;;;;;;4.25;3.22;;;;;;;16.37;43.24;100005.36;1813473;77;21080;-60
2021/10/18 01:26:38;;;;;;;4.95;3.67;;;;;;;16.37;43.25;100004.03;1801809;78;21676;-60
2021/10/18 01:29:04;;;;;;;5.45;3.92;;;;;;;16.35;43.23;100004.22;1814243;78;21108;-60
2021/10/18 01:31:32;;;;;;;4.55;3.17;;;;;;;16.35;43.28;100003.41;1837161;77;21079;-61
2021/10/18 01:33:59;;;;;;;4.20;3.50;;;;;;;16.35;43.24;100002.87;1827027;77;21034;-60
2021/10/18 01:36:26;;;;;;;4.35;3.47;;;;;;;16.34;43.24;100003.07;1808771;77;20987;-60
2021/10/18 01:38:53;;;;;;;4.20;3.67;;;;;;;16.33;43.23;100010.81;1817790;77;21072;-61
2021/10/18 01:41:19;;;;;;;3.80;3.30;;;;;;;16.33;43.21;100012.16;1816699;78;21033;-60
2021/10/18 01:43:45;;;;;;;4.15;3.75;;;;;;;16.31;43.20;100011.83;1804200;78;21012;-59
2021/10/18 01:46:12;;;;;;;3.65;3.27;;;;;;;16.31;43.25;100015.85;1806871;78;21265;-60
2021/10/18 01:48:38;;;;;;;3.55;2.92;;;;;;;16.30;43.24;100018.23;1812077;77;21501;-59
2021/10/18 01:51:11;;;;;;;5.40;3.60;;;;;;;16.30;43.20;100022.25;1815939;78;21068;-58
2021/10/18 01:53:38;;;;;;;4.42;3.45;;;;;;;16.30;43.22;100012.88;1819837;77;21072;-61
2021/10/18 01:56:05;;;;;;;3.77;3.37;;;;;;;16.28;43.20;100018.95;1813529;77;21041;-63
2021/10/18 01:58:32;;;;;;;3.85;3.40;;;;;;;16.28;43.19;100016.27;1814654;78;21109;-60
2021/10/18 02:00:59;;;;;;;3.67;3.20;;;;;;;16.27;43.23;100014.59;1811769;78;21053;-61
2021/10/18 02:03:26;;;;;;;4.40;3.52;;;;;;;16.28;43.22;100012.73;1798532;78;21053;-60
2021/10/18 02:05:53;;;;;;;3.98;3.25;;;;;;;16.28;43.20;100015.41;1798464;79;21538;-60
2021/10/18 02:08:22;;;;;;;3.90;3.33;;;;;;;16.26;43.21;100015.64;1808319;77;22056;-60
2021/10/18 02:10:48;;;;;;;3.37;3.08;;;;;;;16.26;43.17;100016.13;1809610;77;21139;-59
2021/10/18 02:13:16;;;;;;;4.58;3.72;;;;;;;16.25;43.18;100009.13;1815733;77;21005;-60
2021/10/18 02:15:43;;;;;;;4.25;3.30;;;;;;;16.24;43.21;100012.30;1819474;77;21522;-60
2021/10/18 02:18:10;;;;;;;4.05;3.47;;;;;;;16.24;43.23;100014.98;1800361;77;21034;-62
2021/10/18 02:20:36;;;;;;;3.47;3.12;;;;;;;16.24;43.21;100010.96;1802400;77;21045;-61
2021/10/18 02:23:06;;;;;;;4.10;3.40;;;;;;;16.24;43.17;100016.32;1806631;77;21186;-60
2021/10/18 02:25:32;;;;;;;4.97;3.52;;;;;;;16.23;43.18;100013.34;1806136;78;21083;-60
2021/10/18 02:27:59;;;;;;;3.80;3.15;;;;;;;16.23;43.17;100013.86;1811025;77;21017;-60
2021/10/18 02:30:25;;;;;;;3.83;3.52;;;;;;;16.22;43.17;100011.67;1813488;77;21536;-60
2021/10/18 02:32:52;;;;;;;4.47;3.37;;;;;;;16.22;43.17;100011.67;1807125;79;21033;-61
2021/10/18 02:35:18;;;;;;;4.00;3.60;;;;;;;16.22;43.19;100002.81;1780888;77;21190;-60
2021/10/18 02:37:46;;;;;;;3.80;3.40;;;;;;;16.22;43.19;100008.17;1808507;79;21007;-59
2021/10/18 02:40:13;;;;;;;4.25;3.30;;;;;;;16.21;43.23;100009.22;1815109;78;21061;-60
2021/10/18 02:42:39;;;;;;;3.65;3.35;;;;;;;16.21;43.18;100006.53;1812520;78;21002;-60
2021/10/18 02:45:07;;;;;;;4.12;3.72;;;;;;;16.21;43.18;100007.88;1814020;77;20983;-60
2021/10/18 02:47:35;;;;;;;5.12;4.40;;;;;;;16.20;43.21;99993.63;1816877;77;21119;-61
2021/10/18 02:50:03;;;;;;;4.03;3.58;;;;;;;16.20;43.19;100001.66;1813105;77;20970;-60
2021/10/18 02:52:29;;;;;;;3.90;3.33;;;;;;;16.20;43.19;100002.19;1812531;77;21036;-61
2021/10/18 02:54:55;;;;;;;3.95;3.40;;;;;;;16.19;43.19;100000.03;1802165;77;21482;-60
2021/10/18 02:57:22;;;;;;;4.67;3.50;;;;;;;16.19;43.19;99993.84;1801659;77;21100;-59
2021/10/18 02:59:48;;;;;;;4.00;3.30;;;;;;;16.19;43.20;99999.20;1824500;77;21148;-61
2021/10/18 03:02:17;;;;;;;4.30;3.40;;;;;;;16.19;43.17;99993.84;1810050;77;21076;-61
2021/10/18 03:04:43;;;;;;;4.17;3.60;;;;;;;16.20;43.17;99992.80;1808051;77;21049;-60
2021/10/18 03:07:09;;;;;;;5.47;3.65;;;;;;;16.18;43.18;99995.67;1807638;77;21006;-60
2021/10/18 03:09:35;;;;;;;3.92;3.40;;;;;;;16.19;43.15;99997.87;1807697;77;21033;-60
2021/10/18 03:12:04;;;;;;;3.95;3.47;;;;;;;16.18;43.17;99984.95;1805595;79;20999;-60
2021/10/18 03:14:32;;;;;;;3.92;3.50;;;;;;;16.17;43.18;99986.00;1803607;77;21684;-60
2021/10/18 03:16:59;;;;;;;3.37;3.05;;;;;;;16.17;43.16;99986.00;1814209;77;21531;-61
2021/10/18 03:19:27;;;;;;;3.92;3.40;;;;;;;16.18;43.17;99985.48;1816492;77;21006;-59
2021/10/18 03:21:53;;;;;;;4.97;3.77;;;;;;;16.18;43.17;99984.14;1813477;78;21025;-61
2021/10/18 03:24:20;;;;;;;4.00;3.60;;;;;;;16.18;43.17;99977.44;1809379;77;21125;-59
2021/10/18 03:26:46;;;;;;;4.12;3.62;;;;;;;16.18;43.13;99978.78;1813342;77;21030;-60
2021/10/18 03:29:13;;;;;;;3.92;3.50;;;;;;;16.17;43.15;99981.13;1796212;77;21073;-61
2021/10/18 03:31:40;;;;;;;3.85;3.27;;;;;;;16.17;43.15;99979.79;1794480;77;21501;-62
2021/10/18 03:34:06;;;;;;;3.22;2.92;;;;;;;16.17;43.13;99977.95;1811499;79;21065;-61
2021/10/18 03:36:34;;;;;;;5.50;3.87;;;;;;;16.16;43.15;99974.95;1783849;77;21186;-61
2021/10/18 03:39:00;;;;;;;4.15;3.70;;;;;;;16.16;43.15;99978.97;1814261;77;21010;-61
2021/10/18 03:41:27;;;;;;;4.25;3.80;;;;;;;16.15;43.16;99978.67;1790450;77;21057;-60
2021/10/18 03:43:54;;;;;;;4.92;3.83;;;;;;;16.14;43.15;99960.10;1781549;77;21141;-60
2021/10/18 03:46:20;;;;;;;4.20;3.80;;;;;;;16.14;43.14;99964.13;1813164;77;21625;-60
2021/10/18 03:48:46;;;;;;;3.67;3.27;;;;;;;16.12;43.15;99962.45;1804432;78;21147;-60
2021/10/18 03:51:12;;;;;;;4.20;3.47;;;;;;;16.13;43.16;99961.97;1807412;77;21047;-59
2021/10/18 03:53:39;;;;;;;4.45;3.75;;;;;;;16.12;43.15;99962.97;1812826;77;21449;-59
2021/10/18 03:56:05;;;;;;;4.05;3.50;;;;;;;16.12;43.14;99956.28;1807841;77;20978;-60
2021/10/18 03:58:31;;;;;;;4.75;4.10;;;;;;;16.13;43.14;99965.98;1818621;77;21026;-60
2021/10/18 04:00:58;;;;;;;4.53;3.83;;;;;;;16.12;43.12;99957.62;1823483;77;21112;-60
2021/10/18 04:03:24;;;;;;;4.15;3.60;;;;;;;16.11;43.12;99954.64;1828012;77;21039;-59
2021/10/18 04:05:52;;;;;;;3.87;3.47;;;;;;;16.11;43.17;99954.12;1807487;77;21524;-61
2021/10/18 04:08:20;;;;;;;5.37;3.80;;;;;;;16.10;43.17;99957.81;1805494;78;21065;-60
2021/10/18 04:10:47;;;;;;;4.92;3.60;;;;;;;16.10;43.16;99954.31;1806199;77;21513;-60
2021/10/18 04:13:13;;;;;;;4.72;3.87;;;;;;;16.08;43.23;99957.18;1814108;77;21038;-59
2021/10/18 04:15:39;;;;;;;5.15;3.98;;;;;;;16.09;43.20;99962.05;1809659;78;21119;-61
2021/10/18 04:18:06;;;;;;;5.37;4.05;;;;;;;16.08;43.21;99961.20;1808738;77;21045;-61
2021/10/18 04:20:32;;;;;;;4.95;3.75;;;;;;;16.08;43.21;99961.20;1812487;79;21102;-61
2021/10/18 04:22:59;;;;;;;3.72;3.20;;;;;;;16.08;43.24;99964.41;1807660;77;20987;-60
2021/10/18 04:25:27;;;;;;;4.40;3.70;;;;;;;16.08;43.19;99964.41;1808509;77;21107;-60
2021/10/18 04:27:53;;;;;;;4.97;3.70;;;;;;;16.08;43.20;99971.10;1804508;77;21053;-60
2021/10/18 04:30:20;;;;;;;4.03;3.33;;;;;;;16.06;43.19;99965.94;1807329;78;21005;-60
2021/10/18 04:32:46;;;;;;;3.95;3.55;;;;;;;16.06;43.21;99960.58;1807448;78;21036;-60
2021/10/18 04:35:12;;;;;;;4.87;4.10;;;;;;;16.06;43.25;99966.45;1782762;77;21041;-60
2021/10/18 04:37:39;;;;;;;4.40;3.77;;;;;;;16.06;43.24;99963.78;1793351;79;21053;-60
2021/10/18 04:40:07;;;;;;;4.65;3.58;;;;;;;16.05;43.21;99969.66;1803749;77;21416;-60
2021/10/18 04:42:34;;;;;;;5.12;3.30;;;;;;;16.06;43.21;99970.48;1800920;79;21064;-61
2021/10/18 04:45:03;;;;;;;4.92;3.62;;;;;;;16.04;43.21;99977.37;1774017;79;21568;-64
2021/10/18 04:47:29;;;;;;;4.53;3.50;;;;;;;16.05;43.23;99968.31;1777277;77;21049;-60
2021/10/18 04:49:56;;;;;;;4.85;4.22;;;;;;;16.03;43.23;99970.37;1817852;77;21134;-60
2021/10/18 04:52:23;;;;;;;4.55;3.40;;;;;;;16.04;43.26;99972.53;1811857;77;21028;-60
2021/10/18 04:54:49;;;;;;;4.78;3.60;;;;;;;16.04;43.27;99973.87;1796310;79;21001;-60
2021/10/18 04:57:15;;;;;;;3.52;3.22;;;;;;;16.03;43.24;99981.09;1809556;77;21010;-61
2021/10/18 04:59:41;;;;;;;4.25;3.67;;;;;;;16.03;43.27;99981.58;1800081;77;21002;-60
2021/10/18 05:02:08;;;;;;;4.87;4.05;;;;;;;16.04;43.22;99984.59;1791498;78;21120;-60
2021/10/18 05:04:35;;;;;;;4.20;3.80;;;;;;;16.03;43.21;99989.61;1815372;78;21005;-60
2021/10/18 05:07:01;;;;;;;4.12;3.25;;;;;;;16.03;43.26;99997.66;1809459;77;21040;-60
2021/10/18 05:09:28;;;;;;;7.10;3.90;;;;;;;16.03;43.23;99999.00;1815044;77;21053;-61
2021/10/18 05:11:55;;;;;;;4.72;3.42;;;;;;;16.03;43.22;99999.00;1816114;77;21080;-60
2021/10/18 05:14:21;;;;;;;4.90;3.35;;;;;;;16.02;43.24;99998.70;1815614;77;21202;-61
2021/10/18 05:16:51;;;;;;;4.05;3.65;;;;;;;16.01;43.23;99997.88;1814591;78;21032;-61
2021/10/18 05:19:17;;;;;;;4.10;3.42;;;;;;;16.02;43.22;99994.67;1818121;77;21088;-61
2021/10/18 05:21:43;;;;;;;4.33;3.85;;;;;;;16.01;43.21;99999.22;1815633;78;21064;-62
2021/10/18 05:24:10;;;;;;;4.25;3.10;;;;;;;16.02;43.24;100002.72;1815543;77;20983;-61
2021/10/18 05:26:36;;;;;;;4.15;3.65;;;;;;;16.03;43.23;100004.35;1815888;77;21108;-60
2021/10/18 05:29:03;;;;;;;4.03;3.62;;;;;;;16.03;43.22;100010.56;1811594;78;21006;-60
2021/10/18 05:31:30;;;;;;;4.03;3.62;;;;;;;16.04;43.22;100011.38;1815401;77;21092;-60
2021/10/18 05:33:56;;;;;;;4.12;3.72;;;;;;;16.03;43.22;100014.58;1816699;77;21048;-61
2021/10/18 05:36:23;;;;;;;4.20;3.10;;;;;;;16.04;43.22;100014.06;1817461;78;20990;-61
2021/10/18 05:38:49;;;;;;;3.90;3.15;;;;;;;16.03;43.23;100008.38;1816777;78;21053;-61
2021/10/18 05:41:15;;;;;;;5.25;4.00;;;;;;;16.04;43.22;100021.58;1822370;77;20964;-60
2021/10/18 05:43:42;;;;;;;4.12;3.72;;;;;;;16.04;43.21;100022.92;1815706;77;21130;-60
2021/10/18 05:46:09;;;;;;;4.17;3.47;;;;;;;16.05;43.22;100027.27;1806979;77;21072;-60
2021/10/18 05:48:36;;;;;;;4.80;4.12;;;;;;;16.05;43.20;100027.77;1840550;77;21008;-60
2021/10/18 05:51:03;;;;;;;3.65;3.22;;;;;;;16.05;43.16;100022.40;1842319;77;21140;-61
2021/10/18 05:53:30;;;;;;;4.28;3.58;;;;;;;16.04;43.18;100033.64;1838216;77;20993;-60
2021/10/18 05:55:56;;;;;;;4.37;3.85;;;;;;;16.05;43.18;100027.77;1813749;77;21561;-61
2021/10/18 05:58:23;;;;;;;4.20;3.80;;;;;;;16.05;43.14;100035.80;1823031;77;21573;-60
2021/10/18 06:00:49;;;;;;;5.45;4.10;;;;;;;16.05;43.14;100035.80;1819004;78;21057;-61
2021/10/18 06:03:15;;;;;;;4.08;3.30;;;;;;;16.05;43.13;100037.14;1804875;78;21044;-61
2021/10/18 06:05:46;;;;;;;4.45;3.75;;;;;;;16.04;43.15;100036.84;1815264;77;21033;-61
2021/10/18 06:08:14;;;;;;;4.30;3.75;;;;;;;16.05;43.13;100046.52;1817012;77;21024;-61
2021/10/18 06:10:41;;;;;;;4.47;3.90;;;;;;;16.04;43.14;100039.52;1815880;77;21518;-61
2021/10/18 06:13:08;;;;;;;5.17;4.40;;;;;;;16.04;43.13;100043.54;1816761;78;21021;-61
2021/10/18 06:15:35;;;;;;;4.35;3.65;;;;;;;16.05;43.12;100049.20;1820275;77;21101;-62
2021/10/18 06:18:12;;;;;;;5.10;3.50;;;;;;;16.04;43.12;100049.72;1815838;77;21029;-62
2021/10/18 06:20:41;;;;;;;5.45;3.75;;;;;;;16.04;43.10;100054.26;1805223;77;21024;-61
2021/10/18 06:23:08;;;;;;;3.80;3.42;;;;;;;16.03;43.13;100060.63;1797061;77;20997;-61
2021/10/18 06:25:35;;;;;;;4.25;3.85;;;;;;;16.03;43.13;100061.97;1802745;77;21037;-61
2021/10/18 06:28:02;;;;;;;4.37;3.98;;;;;;;16.03;43.12;100060.63;1793320;77;23230;-62
2021/10/18 06:30:29;;;;;;;3.95;3.55;;;;;;;16.03;43.10;100055.27;1788971;78;20989;-61
2021/10/18 06:32:55;;;;;;;5.05;3.80;;;;;;;16.02;43.13;100050.42;1813719;77;20994;-61
2021/10/18 06:35:22;;;;;;;4.22;3.70;;;;;;;16.04;43.12;100060.95;1794977;78;21029;-60
2021/10/18 06:37:48;;;;;;;4.78;3.80;;;;;;;16.04;43.10;100055.59;1802072;78;21552;-60
2021/10/18 06:40:15;;;;;;;4.78;3.87;;;;;;;16.04;43.09;100062.30;1814618;78;21023;-63
2021/10/18 06:42:42;;;;;;;5.62;4.20;;;;;;;16.04;43.09;100060.44;1814209;78;21048;-61
2021/10/18 06:45:09;;;;;;;4.12;3.58;;;;;;;16.03;43.09;100064.64;1813837;77;21106;-61
2021/10/18 06:47:37;;;;;;;4.45;3.40;;;;;;;16.03;43.08;100068.66;1799052;77;21048;-62
2021/10/18 06:50:07;;;;;;;5.50;4.10;;;;;;;16.04;43.12;100073.02;1820304;77;21010;-62
2021/10/18 06:52:38;;;;;;;5.00;3.97;;;;;;;16.04;43.12;100078.38;1825498;77;21580;-60
2021/10/18 06:55:07;;;;;;;4.95;4.05;;;;;;;16.04;43.10;100075.70;1834859;77;21030;-60
2021/10/18 06:57:35;;;;;;;4.42;3.90;;;;;;;16.03;43.10;100078.90;1809124;77;21053;-61
2021/10/18 07:00:01;;;;;;;3.98;3.30;;;;;;;16.05;43.09;100082.70;1820273;78;21053;-61
2021/10/18 07:02:28;;;;;;;4.65;3.70;;;;;;;16.04;43.09;100079.20;1814768;77;20998;-61
2021/10/18 07:04:54;;;;;;;4.10;3.67;;;;;;;16.04;43.10;100080.53;1826802;77;21069;-61
2021/10/18 07:07:21;;;;;;;4.65;3.87;;;;;;;16.04;43.10;100080.53;1808175;77;21006;-61
2021/10/18 07:09:48;;;;;;;4.40;4.00;;;;;;;16.06;43.11;100080.34;1810912;77;21018;-60
2021/10/18 07:12:14;;;;;;;5.65;3.92;;;;;;;16.05;43.08;100082.20;1804817;77;21040;-61
2021/10/18 07:14:41;;;;;;;3.90;3.37;;;;;;;16.06;43.07;100079.00;1810786;77;21006;-60
2021/10/18 07:17:07;;;;;;;4.62;3.85;;;;;;;16.06;43.07;100079.00;1805916;77;21099;-61
2021/10/18 07:19:33;;;;;;;4.05;3.30;;;;;;;16.06;43.07;100072.30;1810802;77;21088;-60
2021/10/18 07:21:59;;;;;;;5.15;3.60;;;;;;;16.06;43.07;100075.80;1807949;77;20966;-62
2021/10/18 07:24:26;;;;;;;4.70;4.15;;;;;;;16.06;43.05;100078.48;1811452;77;21034;-65
2021/10/18 07:26:52;;;;;;;5.20;3.52;;;;;;;16.06;43.05;100081.17;1806122;78;21549;-60
2021/10/18 07:29:21;;;;;;;4.10;3.25;;;;;;;16.07;43.05;100076.62;1811091;77;21447;-61
2021/10/18 07:31:47;;;;;;;5.50;4.25;;;;;;;16.07;43.06;100069.92;1816204;77;21030;-61
2021/10/18 07:34:16;;;;;;;6.62;4.05;;;;;;;16.08;43.05;100073.76;1805381;77;21013;-63
2021/10/18 07:36:51;;;;;;;5.17;3.83;;;;;;;16.09;43.05;100067.39;1805120;77;21072;-63
2021/10/18 07:39:21;;;;;;;4.03;3.62;;;;;;;16.11;43.05;100062.66;1807673;77;20998;-60
2021/10/18 07:41:52;;;;;;;4.67;3.92;;;;;;;16.13;43.03;100058.45;1807915;77;21550;-61
2021/10/18 07:44:19;;;;;;;5.33;4.00;;;;;;;16.14;43.04;100056.06;1804985;78;21006;-61
2021/10/18 07:46:45;;;;;;;3.67;3.33;;;;;;;16.16;43.02;100054.02;1809052;77;21010;-61
2021/10/18 07:49:12;;;;;;;4.85;3.77;;;;;;;16.20;43.03;100055.80;1817887;77;21042;-61
2021/10/18 07:51:38;;;;;;;4.12;3.70;;;;;;;16.09;43.00;100039.25;1810501;78;21001;-61
2021/10/18 07:54:05;;;;;;;7.03;4.03;;;;;;;16.22;42.98;100056.42;1810023;78;21128;-62
2021/10/18 07:56:32;;;;;;;4.45;3.65;;;;;;;16.24;42.94;100056.53;1811494;77;21022;-62
2021/10/18 07:58:59;;;;;;;5.28;3.98;;;;;;;16.27;42.90;100055.33;1805371;77;21051;-61
2021/10/18 08:01:25;;;;;;;4.42;3.98;;;;;;;16.29;42.91;100053.28;1811134;77;21692;-60
2021/10/18 08:03:51;;;;;;;5.08;4.20;;;;;;;16.30;42.87;100057.11;1826620;77;21090;-62
2021/10/18 08:06:18;;;;;;;5.05;3.83;;;;;;;16.34;42.85;100058.03;1819067;77;21116;-62
2021/10/18 08:08:47;;;;;;;5.75;3.87;;;;;;;16.35;42.83;100063.72;1817299;77;21065;-62
2021/10/18 08:11:13;;;;;;;5.40;4.03;;;;;;;16.37;42.81;100061.67;1826951;77;21041;-62
2021/10/18 08:13:39;;;;;;;4.30;3.75;;;;;;;16.39;42.78;100062.30;1836475;77;21028;-61
2021/10/18 08:16:05;;;;;;;4.47;4.03;;;;;;;16.42;42.76;100069.95;1829183;77;21009;-61
2021/10/18 08:18:32;;;;;;;4.80;4.30;;;;;;;16.43;42.74;100068.39;1825155;77;21897;-61
2021/10/18 08:20:58;;;;;;;4.62;4.03;;;;;;;16.44;42.71;100063.36;1826175;77;21596;-62
2021/10/18 08:23:25;;;;;;;6.75;4.42;;;;;;;16.47;42.69;100066.97;1824764;77;21572;-61
2021/10/18 08:25:51;;;;;;;5.05;4.17;;;;;;;16.49;42.69;100058.20;1832842;77;21007;-60
2021/10/18 08:28:18;;;;;;;5.08;4.00;;;;;;;16.51;42.64;100056.19;1813938;77;21012;-63
2021/10/18 08:30:44;;;;;;;4.80;3.87;;;;;;;16.54;42.63;100050.11;1821940;77;21105;-61
2021/10/18 08:33:11;;;;;;;5.10;4.05;;;;;;;16.57;42.62;100051.84;1824046;77;21032;-62
2021/10/18 08:35:37;;;;;;;4.35;3.75;;;;;;;16.60;42.56;100050.64;1816377;77;21039;-63
2021/10/18 08:41:13;;;;;;;4.25;3.70;;;;;;;16.66;42.53;100053.86;1826144;77;21075;-60
2021/10/18 08:45:52;;;;;;;4.42;3.67;;;;;;;16.70;42.46;100050.56;1809067;77;21024;-60
2021/10/18 08:48:18;;;;;;;4.80;4.30;;;;;;;16.74;42.43;100046.16;1826619;77;21021;-61
2021/10/18 08:50:46;;;;;;;4.83;4.12;;;;;;;16.75;42.40;100044.62;1825462;77;21033;-61
2021/10/18 08:53:13;;;;;;;4.53;4.12;;;;;;;16.78;42.38;100048.74;1817418;77;21033;-61
2021/10/18 08:55:41;;;;;;;4.60;4.15;;;;;;;16.81;42.34;100049.17;1826168;77;21188;-61
2021/10/18 08:58:08;;;;;;;4.50;4.10;;;;;;;16.83;42.33;100040.44;1825344;77;21095;-62
2021/10/18 09:00:48;;;;;;;4.85;4.33;;;;;;;16.85;42.28;100043.74;1825089;77;21011;-61
2021/10/18 09:03:25;;;;;;;4.17;3.77;;;;;;;16.88;42.28;100043.84;1817195;77;21009;-62
2021/10/18 09:06:11;;;;;;;4.97;3.72;;;;;;;16.91;42.25;100048.81;1816391;77;21002;-63
2021/10/18 09:08:41;;;;;;;4.47;3.98;;;;;;;16.93;42.21;100041.39;1797717;77;23251;-60
2021/10/18 09:11:16;;;;;;;4.53;3.50;;;;;;;16.95;42.22;100040.67;1827207;77;21182;-60
2021/10/18 09:13:55;;;;;;;4.67;4.25;;;;;;;16.98;42.19;100044.80;1816996;77;21052;-62
2021/10/18 09:17:06;;;;;;;5.00;4.17;;;;;;;17.06;42.18;100037.92;1861654;76;28775;-60
2021/10/18 09:19:32;;;;;;;4.90;4.40;;;;;;;17.04;42.18;100036.78;1820074;77;21057;-63
2021/10/18 09:22:04;;;;;;;4.47;3.90;;;;;;;17.07;42.18;100029.67;1821721;77;21991;-61
2021/10/18 09:24:36;;;;;;;4.35;3.90;;;;;;;17.12;42.22;100033.60;1825943;77;21052;-61
2021/10/18 09:27:18;;;;;;;4.72;4.20;;;;;;;17.13;42.17;100029.34;1821755;77;21076;-62
2021/10/18 09:29:49;;;;;;;4.72;4.33;;;;;;;17.19;42.19;100035.76;1818330;77;20980;-63
2021/10/18 09:32:27;;;;;;;5.08;4.05;;;;;;;17.20;42.22;100030.19;1821900;77;21061;-62
2021/10/18 09:35:05;;;;;;;6.00;4.30;;;;;;;17.21;42.17;100027.83;1801481;77;21133;-61
2021/10/18 09:37:43;;;;;;;5.08;4.33;;;;;;;17.26;42.15;100027.20;1802940;78;21696;-61
2021/10/18 09:40:14;;;;;;;4.60;4.20;;;;;;;17.28;42.13;100029.17;1817000;78;20978;-61
2021/10/18 09:42:41;;;;;;;4.90;4.15;;;;;;;17.31;42.12;100026.09;1814206;77;21058;-62
2021/10/18 09:45:29;;;;;;;4.83;4.15;;;;;;;17.34;42.11;100017.60;1763427;77;21560;-60
2021/10/18 10:51:47;;;;;;;4.47;3.83;;;;;;;17.77;42.05;99986.80;1758350;80;21037;-70
2021/10/18 10:54:08;;;;;;;4.65;3.83;;;;;;;17.78;42.06;99982.56;1779640;79;21618;-71
2021/10/18 10:56:45;;;;;;;5.03;3.83;;;;;;;17.79;42.01;99977.52;1721569;80;22426;-70
2021/10/18 10:59:25;;;;;;;3.85;3.45;;;;;;;17.82;42.00;99985.13;1813481;77;21757;-71
2021/10/18 11:02:11;;;;;;;4.65;4.22;;;;;;;17.84;42.01;99981.75;1821719;77;21497;-62
2021/10/18 11:04:43;;;;;;;4.65;3.90;;;;;;;17.86;42.00;99979.67;1781931;77;21033;-62
2021/10/18 11:07:20;;;;;;;4.07;3.70;;;;;;;17.87;41.96;99978.66;1830320;77;21693;-61
2021/10/18 11:09:57;;;;;;;4.97;4.30;;;;;;;17.88;41.94;99970.88;1814416;77;21039;-65
2021/10/18 11:12:43;;;;;;;4.78;4.22;;;;;;;17.91;41.93;99972.34;1822415;77;21127;-62
2021/10/18 11:15:16;;;;;;;4.72;3.92;;;;;;;17.93;41.90;99970.80;1817919;77;21521;-63
2021/10/18 11:17:50;;;;;;;4.80;4.37;;;;;;;17.53;41.90;99902.33;1812070;77;21033;-60
2021/10/18 11:20:19;;;;;;;4.35;3.77;;;;;;;17.95;41.87;99967.38;1812094;77;21517;-63
2021/10/18 11:22:48;;;;;;;4.40;4.00;;;;;;;17.96;41.88;99972.52;1811521;77;21005;-60
2021/10/18 11:25:21;;;;;;;4.17;3.77;;;;;;;17.97;41.84;99964.78;1813209;77;21096;-62
2021/10/18 11:27:57;;;;;;;4.80;4.30;;;;;;;17.99;41.84;99962.70;1813755;77;21472;-61
2021/10/18 11:30:27;;;;;;;4.12;3.72;;;;;;;18.01;41.81;99969.22;1804941;77;21510;-60
2021/10/18 11:33:06;;;;;;;4.22;3.62;;;;;;;18.02;41.77;99968.16;1805616;77;21007;-61
2021/10/18 11:35:34;;;;;;;4.22;3.83;;;;;;;18.02;41.75;99964.13;1814240;77;21041;-61
2021/10/18 11:38:05;;;;;;;3.70;3.40;;;;;;;18.04;41.74;99967.44;1806804;79;21252;-61
2021/10/18 11:40:48;;;;;;;4.20;3.75;;;;;;;18.04;41.73;99964.74;1812463;78;21524;-63
2021/10/18 11:43:23;;;;;;;3.77;3.40;;;;;;;18.05;41.70;99961.84;1807308;77;21502;-60
2021/10/18 11:45:52;;;;;;;4.58;3.67;;;;;;;18.05;41.69;99955.66;1810069;77;21506;-62
2021/10/18 11:48:24;;;;;;;4.78;3.70;;;;;;;18.06;41.67;99960.02;1794476;79;21050;-61
2021/10/18 11:50:54;;;;;;;4.28;3.87;;;;;;;18.07;41.63;99956.27;1783547;77;21150;-61
2021/10/18 11:53:22;;;;;;;5.17;4.33;;;;;;;18.08;41.59;99962.78;1782645;77;21033;-60
2021/10/18 11:55:51;;;;;;;4.00;3.60;;;;;;;18.08;41.58;99963.31;1789783;77;21065;-61
2021/10/18 11:58:27;;;;;;;4.58;4.12;;;;;;;18.10;41.56;99960.39;1810235;77;21474;-60
2021/10/18 12:01:10;;;;;;;4.35;3.95;;;;;;;18.11;41.53;99962.05;1779545;79;21021;-61
2021/10/18 12:03:37;;;;;;;4.28;3.83;;;;;;;18.12;41.54;99964.53;1737884;80;21124;-61
2021/10/18 12:06:07;;;;;;;4.12;3.72;;;;;;;18.11;41.52;99962.87;1747181;79;21655;-63
2021/10/18 12:08:36;;;;;;;3.85;3.45;;;;;;;18.13;41.49;99966.17;1750377;79;21030;-61
2021/10/18 12:11:06;;;;;;;4.40;3.87;;;;;;;18.14;41.47;99962.95;1758374;79;21013;-63
2021/10/18 12:13:35;;;;;;;4.45;3.65;;;;;;;18.15;41.44;99960.06;1742115;79;21070;-61
2021/10/18 12:16:06;;;;;;;4.00;3.47;;;;;;;18.16;41.49;99956.88;1759189;79;21196;-63
2021/10/18 12:18:59;;;;;;;4.53;4.10;;;;;;;18.17;41.45;99956.64;1750776;80;21089;-62
2021/10/18 12:21:30;;;;;;;4.65;3.62;;;;;;;18.17;41.41;99955.82;1744888;80;21065;-62
2021/10/18 12:24:05;;;;;;;3.25;2.87;;;;;;;18.17;41.39;99953.13;1747712;81;21126;-62
2021/10/18 12:26:52;;;;;;;4.58;4.17;;;;;;;18.17;41.42;99958.51;1742745;81;21057;-62
2021/10/18 12:29:25;;;;;;;4.03;3.62;;;;;;;18.17;41.41;99960.67;1747007;79;21053;-63
2021/10/18 12:31:59;;;;;;;3.92;3.62;;;;;;;18.17;41.39;99963.36;1766012;81;21044;-61
2021/10/18 12:34:27;;;;;;;4.62;3.87;;;;;;;18.17;41.40;99959.33;1734912;81;21022;-61
2021/10/18 12:37:13;;;;;;;4.83;3.80;;;;;;;18.17;41.37;99956.64;1728997;81;21039;-63
2021/10/18 12:39:56;;;;;;;3.58;3.27;;;;;;;18.18;41.35;99961.52;1762505;81;21011;-62
2021/10/18 12:42:33;;;;;;;4.10;3.60;;;;;;;18.17;41.35;99966.58;1773972;80;21098;-60
2021/10/18 12:45:10;;;;;;;4.25;3.40;;;;;;;18.17;41.33;99963.36;1761296;79;21065;-61